sensor_id;sensor_type;location;lat;lon;timestamp;temperature;humidity
3492;DHT22;1760;52.480;13.422;2022-12-18T00:01:50;-3.40;99.90
3492;DHT22;1760;52.480;13.422;2022-12-18T00:04:21;-3.40;99.90
3492;DHT22;1760;52.480;13.422;2022-12-18T00:06:48;-3.50;99.90
3492;DHT22;1760;52.480;13.422;2022-12-18T00:09:16;-3.50;99.90
3492;DHT22;1760;52.480;13.422;2022-12-18T00:11:43;-3.60;99.90
3492;DHT22;1760;52.480;13.422;2022-12-18T00:14:11;-3.50;99.90
3492;DHT22;1760;52.480;13.422;2022-12-18T00:16:42;-3.50;99.90
3492;DHT22;1760;52.480;13.422;2022-12-18T00:19:10;-3.50;99.90
3492;DHT22;1760;52.480;13.422;2022-12-18T00:21:40;-3.50;99.90
3492;DHT22;1760;52.480;13.422;2022-12-18T00:24:08;-3.60;99.90
3492;DHT22;1760;52.480;13.422;2022-12-18T00:26:36;-3.60;99.90
3492;DHT22;1760;52.480;13.422;2022-12-18T00:29:05;-3.70;99.90
3492;DHT22;1760;52.480;13.422;2022-12-18T00:31:35;-3.70;99.90
3492;DHT22;1760;52.480;13.422;2022-12-18T00:34:03;-3.80;99.90
3492;DHT22;1760;52.480;13.422;2022-12-18T00:36:33;-3.80;99.90
3492;DHT22;1760;52.480;13.422;2022-12-18T00:39:02;-3.80;99.90
3492;DHT22;1760;52.480;13.422;2022-12-18T00:41:30;-2.70;99.90
3492;DHT22;1760;52.480;13.422;2022-12-18T00:44:17;-0.50;99.90
3492;DHT22;1760;52.480;13.422;2022-12-18T00:46:44;-0.80;99.90
3492;DHT22;1760;52.480;13.422;2022-12-18T00:49:13;-1.60;99.90
3492;DHT22;1760;52.480;13.422;2022-12-18T00:51:41;-2.10;99.90
3492;DHT22;1760;52.480;13.422;2022-12-18T00:54:08;-2.50;99.90
3492;DHT22;1760;52.480;13.422;2022-12-18T00:56:36;-2.70;99.90
3492;DHT22;1760;52.480;13.422;2022-12-18T00:59:03;-2.90;99.90
3492;DHT22;1760;52.480;13.422;2022-12-18T01:01:32;-3.10;99.90
3492;DHT22;1760;52.480;13.422;2022-12-18T01:04:00;-3.20;99.90
3492;DHT22;1760;52.480;13.422;2022-12-18T01:06:29;-3.30;99.90
3492;DHT22;1760;52.480;13.422;2022-12-18T01:08:56;-3.40;99.90
3492;DHT22;1760;52.480;13.422;2022-12-18T01:11:24;-3.50;99.90
3492;DHT22;1760;52.480;13.422;2022-12-18T01:13:52;-3.50;99.90
3492;DHT22;1760;52.480;13.422;2022-12-18T01:16:19;-3.80;99.90
3492;DHT22;1760;52.480;13.422;2022-12-18T01:18:46;-3.80;99.90
3492;DHT22;1760;52.480;13.422;2022-12-18T01:21:15;-3.90;99.90
3492;DHT22;1760;52.480;13.422;2022-12-18T01:23:43;-3.90;99.90
3492;DHT22;1760;52.480;13.422;2022-12-18T01:26:13;-3.90;99.90
3492;DHT22;1760;52.480;13.422;2022-12-18T01:28:40;-3.90;99.90
3492;DHT22;1760;52.480;13.422;2022-12-18T01:31:16;-3.90;99.90
3492;DHT22;1760;52.480;13.422;2022-12-18T01:33:44;-3.90;99.90
3492;DHT22;1760;52.480;13.422;2022-12-18T01:36:16;-3.90;99.90
3492;DHT22;1760;52.480;13.422;2022-12-18T01:38:45;-3.90;99.90
3492;DHT22;1760;52.480;13.422;2022-12-18T01:41:13;-4.00;99.90
3492;DHT22;1760;52.480;13.422;2022-12-18T01:43:42;-4.00;99.90
3492;DHT22;1760;52.480;13.422;2022-12-18T01:46:09;-4.00;99.90
3492;DHT22;1760;52.480;13.422;2022-12-18T01:48:38;-4.00;99.90
3492;DHT22;1760;52.480;13.422;2022-12-18T01:51:08;-4.10;99.90
3492;DHT22;1760;52.480;13.422;2022-12-18T01:53:37;-4.10;99.90
3492;DHT22;1760;52.480;13.422;2022-12-18T01:56:07;-4.10;99.90
3492;DHT22;1760;52.480;13.422;2022-12-18T01:58:41;-4.00;99.90
3492;DHT22;1760;52.480;13.422;2022-12-18T02:01:10;-4.00;99.90
3492;DHT22;1760;52.480;13.422;2022-12-18T02:03:37;-3.90;99.90
3492;DHT22;1760;52.480;13.422;2022-12-18T02:06:10;-3.90;99.90
3492;DHT22;1760;52.480;13.422;2022-12-18T02:08:48;-4.00;99.90
3492;DHT22;1760;52.480;13.422;2022-12-18T02:11:22;-4.00;99.90
3492;DHT22;1760;52.480;13.422;2022-12-18T02:13:58;-4.10;99.90
3492;DHT22;1760;52.480;13.422;2022-12-18T02:16:34;-4.10;99.90
3492;DHT22;1760;52.480;13.422;2022-12-18T02:19:08;-4.10;99.90
3492;DHT22;1760;52.480;13.422;2022-12-18T02:21:47;-4.20;99.90
3492;DHT22;1760;52.480;13.422;2022-12-18T02:24:22;-4.10;99.90
3492;DHT22;1760;52.480;13.422;2022-12-18T02:26:56;-4.30;99.90
3492;DHT22;1760;52.480;13.422;2022-12-18T02:29:27;-4.40;99.90
3492;DHT22;1760;52.480;13.422;2022-12-18T02:32:01;-4.40;99.90
3492;DHT22;1760;52.480;13.422;2022-12-18T02:34:30;-4.40;99.90
3492;DHT22;1760;52.480;13.422;2022-12-18T02:37:02;-4.30;99.90
3492;DHT22;1760;52.480;13.422;2022-12-18T02:39:32;-4.30;99.90
3492;DHT22;1760;52.480;13.422;2022-12-18T02:42:01;-4.10;99.90
3492;DHT22;1760;52.480;13.422;2022-12-18T02:44:41;-4.10;99.90
3492;DHT22;1760;52.480;13.422;2022-12-18T02:47:10;-4.20;99.90
3492;DHT22;1760;52.480;13.422;2022-12-18T02:49:44;-4.30;99.90
3492;DHT22;1760;52.480;13.422;2022-12-18T02:52:18;-4.30;99.90
3492;DHT22;1760;52.480;13.422;2022-12-18T02:54:57;-4.40;99.90
3492;DHT22;1760;52.480;13.422;2022-12-18T02:57:34;-4.40;99.90
3492;DHT22;1760;52.480;13.422;2022-12-18T03:00:07;-4.30;99.90
3492;DHT22;1760;52.480;13.422;2022-12-18T03:02:38;-4.30;99.90
3492;DHT22;1760;52.480;13.422;2022-12-18T03:05:12;-4.40;99.90
3492;DHT22;1760;52.480;13.422;2022-12-18T03:07:43;-4.30;99.90
3492;DHT22;1760;52.480;13.422;2022-12-18T03:10:15;-4.30;99.90
3492;DHT22;1760;52.480;13.422;2022-12-18T03:12:49;-4.30;99.90
3492;DHT22;1760;52.480;13.422;2022-12-18T03:15:21;-4.30;99.90
3492;DHT22;1760;52.480;13.422;2022-12-18T03:17:55;-4.30;99.90
3492;DHT22;1760;52.480;13.422;2022-12-18T03:20:23;-4.20;99.90
3492;DHT22;1760;52.480;13.422;2022-12-18T03:22:57;-4.20;99.90
3492;DHT22;1760;52.480;13.422;2022-12-18T03:25:30;-4.20;99.90
3492;DHT22;1760;52.480;13.422;2022-12-18T03:28:00;-4.30;99.90
3492;DHT22;1760;52.480;13.422;2022-12-18T03:30:31;-4.30;99.90
3492;DHT22;1760;52.480;13.422;2022-12-18T03:33:05;-4.40;99.90
3492;DHT22;1760;52.480;13.422;2022-12-18T03:35:37;-4.50;99.90
3492;DHT22;1760;52.480;13.422;2022-12-18T03:38:05;-4.50;99.90
3492;DHT22;1760;52.480;13.422;2022-12-18T03:40:38;-4.60;99.90
3492;DHT22;1760;52.480;13.422;2022-12-18T03:43:11;-4.50;99.90
3492;DHT22;1760;52.480;13.422;2022-12-18T03:45:49;-4.60;99.90
3492;DHT22;1760;52.480;13.422;2022-12-18T03:48:21;-4.60;99.90
3492;DHT22;1760;52.480;13.422;2022-12-18T03:50:56;-4.60;99.90
3492;DHT22;1760;52.480;13.422;2022-12-18T03:53:30;-4.60;99.90
3492;DHT22;1760;52.480;13.422;2022-12-18T03:55:59;-4.60;99.90
3492;DHT22;1760;52.480;13.422;2022-12-18T03:58:28;-4.60;99.90
3492;DHT22;1760;52.480;13.422;2022-12-18T04:00:57;-4.70;99.90
3492;DHT22;1760;52.480;13.422;2022-12-18T04:03:26;-4.70;99.90
3492;DHT22;1760;52.480;13.422;2022-12-18T04:05:55;-4.70;99.90
3492;DHT22;1760;52.480;13.422;2022-12-18T04:08:24;-4.70;99.90
3492;DHT22;1760;52.480;13.422;2022-12-18T04:10:51;-4.60;99.90
3492;DHT22;1760;52.480;13.422;2022-12-18T04:13:24;-4.60;99.90
3492;DHT22;1760;52.480;13.422;2022-12-18T04:15:52;-4.60;99.90
3492;DHT22;1760;52.480;13.422;2022-12-18T04:18:19;-4.60;99.90
3492;DHT22;1760;52.480;13.422;2022-12-18T04:20:46;-4.60;99.90
3492;DHT22;1760;52.480;13.422;2022-12-18T04:23:13;-4.50;99.90
3492;DHT22;1760;52.480;13.422;2022-12-18T04:25:40;-4.50;99.90
3492;DHT22;1760;52.480;13.422;2022-12-18T04:28:07;-4.40;99.90
3492;DHT22;1760;52.480;13.422;2022-12-18T04:30:34;-4.40;99.90
3492;DHT22;1760;52.480;13.422;2022-12-18T04:33:02;-4.40;99.90
3492;DHT22;1760;52.480;13.422;2022-12-18T04:35:29;-4.40;99.90
3492;DHT22;1760;52.480;13.422;2022-12-18T04:37:56;-4.40;99.90
3492;DHT22;1760;52.480;13.422;2022-12-18T04:40:25;-4.40;99.90
3492;DHT22;1760;52.480;13.422;2022-12-18T04:42:52;-4.40;99.90
3492;DHT22;1760;52.480;13.422;2022-12-18T04:45:19;-4.30;99.90
3492;DHT22;1760;52.480;13.422;2022-12-18T04:47:46;-4.30;99.90
3492;DHT22;1760;52.480;13.422;2022-12-18T04:50:16;-4.30;99.90
3492;DHT22;1760;52.480;13.422;2022-12-18T04:52:43;-4.40;99.90
3492;DHT22;1760;52.480;13.422;2022-12-18T04:55:10;-4.40;99.90
3492;DHT22;1760;52.480;13.422;2022-12-18T04:57:37;-4.30;99.90
3492;DHT22;1760;52.480;13.422;2022-12-18T05:00:05;-4.40;99.90
3492;DHT22;1760;52.480;13.422;2022-12-18T05:02:32;-4.40;99.90
3492;DHT22;1760;52.480;13.422;2022-12-18T05:04:59;-4.40;99.90
3492;DHT22;1760;52.480;13.422;2022-12-18T05:07:27;-4.30;99.90
3492;DHT22;1760;52.480;13.422;2022-12-18T05:09:54;-4.40;99.90
3492;DHT22;1760;52.480;13.422;2022-12-18T05:12:23;-4.50;99.90
3492;DHT22;1760;52.480;13.422;2022-12-18T05:14:51;-4.60;99.90
3492;DHT22;1760;52.480;13.422;2022-12-18T05:17:18;-4.70;99.90
3492;DHT22;1760;52.480;13.422;2022-12-18T05:19:44;-4.80;99.90
3492;DHT22;1760;52.480;13.422;2022-12-18T05:22:11;-4.90;99.90
3492;DHT22;1760;52.480;13.422;2022-12-18T05:24:40;-4.90;99.90
3492;DHT22;1760;52.480;13.422;2022-12-18T05:27:06;-4.90;99.90
3492;DHT22;1760;52.480;13.422;2022-12-18T05:29:33;-5.00;99.90
3492;DHT22;1760;52.480;13.422;2022-12-18T05:32:00;-4.90;99.90
3492;DHT22;1760;52.480;13.422;2022-12-18T05:34:30;-4.90;99.90
3492;DHT22;1760;52.480;13.422;2022-12-18T05:36:58;-4.90;99.90
3492;DHT22;1760;52.480;13.422;2022-12-18T05:39:25;-4.80;99.90
3492;DHT22;1760;52.480;13.422;2022-12-18T05:41:57;-4.90;99.90
3492;DHT22;1760;52.480;13.422;2022-12-18T05:44:24;-4.80;99.90
3492;DHT22;1760;52.480;13.422;2022-12-18T05:46:54;-4.80;99.90
3492;DHT22;1760;52.480;13.422;2022-12-18T05:49:21;-4.80;99.90
3492;DHT22;1760;52.480;13.422;2022-12-18T05:51:48;-4.70;99.90
3492;DHT22;1760;52.480;13.422;2022-12-18T05:54:14;-4.70;99.90
3492;DHT22;1760;52.480;13.422;2022-12-18T05:56:41;-4.60;99.90
3492;DHT22;1760;52.480;13.422;2022-12-18T05:59:09;-4.60;99.90
3492;DHT22;1760;52.480;13.422;2022-12-18T06:01:36;-4.60;99.90
3492;DHT22;1760;52.480;13.422;2022-12-18T06:04:04;-4.60;99.90
3492;DHT22;1760;52.480;13.422;2022-12-18T06:06:31;-4.60;99.90
3492;DHT22;1760;52.480;13.422;2022-12-18T06:08:58;-4.60;99.90
3492;DHT22;1760;52.480;13.422;2022-12-18T06:11:27;-4.60;99.90
3492;DHT22;1760;52.480;13.422;2022-12-18T06:13:55;-4.60;99.90
3492;DHT22;1760;52.480;13.422;2022-12-18T06:16:23;-4.50;99.90
3492;DHT22;1760;52.480;13.422;2022-12-18T06:18:50;-4.60;99.90
3492;DHT22;1760;52.480;13.422;2022-12-18T06:21:17;-4.50;99.90
3492;DHT22;1760;52.480;13.422;2022-12-18T06:23:44;-4.50;99.90
3492;DHT22;1760;52.480;13.422;2022-12-18T06:26:12;-4.50;99.90
3492;DHT22;1760;52.480;13.422;2022-12-18T06:28:39;-4.50;99.90
3492;DHT22;1760;52.480;13.422;2022-12-18T06:31:07;-4.40;99.90
3492;DHT22;1760;52.480;13.422;2022-12-18T06:33:35;-4.40;99.90
3492;DHT22;1760;52.480;13.422;2022-12-18T06:36:07;-4.40;99.90
3492;DHT22;1760;52.480;13.422;2022-12-18T06:38:35;-4.40;99.90
3492;DHT22;1760;52.480;13.422;2022-12-18T06:41:06;-4.50;99.90
3492;DHT22;1760;52.480;13.422;2022-12-18T06:43:33;-4.50;99.90
3492;DHT22;1760;52.480;13.422;2022-12-18T06:46:01;-4.60;99.90
3492;DHT22;1760;52.480;13.422;2022-12-18T06:48:28;-4.70;99.90
3492;DHT22;1760;52.480;13.422;2022-12-18T06:50:56;-4.70;99.90
3492;DHT22;1760;52.480;13.422;2022-12-18T06:53:23;-4.60;99.90
3492;DHT22;1760;52.480;13.422;2022-12-18T06:55:58;-4.50;99.90
3492;DHT22;1760;52.480;13.422;2022-12-18T06:58:25;-4.40;99.90
3492;DHT22;1760;52.480;13.422;2022-12-18T07:00:53;-4.50;99.90
3492;DHT22;1760;52.480;13.422;2022-12-18T07:03:20;-4.50;99.90
3492;DHT22;1760;52.480;13.422;2022-12-18T07:05:47;-4.50;99.90
3492;DHT22;1760;52.480;13.422;2022-12-18T07:08:15;-4.50;99.90
3492;DHT22;1760;52.480;13.422;2022-12-18T07:10:42;-4.40;99.90
3492;DHT22;1760;52.480;13.422;2022-12-18T07:13:09;-4.40;99.90
3492;DHT22;1760;52.480;13.422;2022-12-18T07:15:36;-4.40;99.90
3492;DHT22;1760;52.480;13.422;2022-12-18T07:18:03;-4.30;99.90
3492;DHT22;1760;52.480;13.422;2022-12-18T07:20:30;-4.30;99.90
3492;DHT22;1760;52.480;13.422;2022-12-18T07:22:57;-4.30;99.90
3492;DHT22;1760;52.480;13.422;2022-12-18T07:25:25;-4.20;99.90
3492;DHT22;1760;52.480;13.422;2022-12-18T07:27:52;-4.20;99.90
3492;DHT22;1760;52.480;13.422;2022-12-18T07:30:19;-4.10;99.90
3492;DHT22;1760;52.480;13.422;2022-12-18T07:32:47;-4.10;99.90
3492;DHT22;1760;52.480;13.422;2022-12-18T07:35:15;-4.10;99.90
3492;DHT22;1760;52.480;13.422;2022-12-18T07:37:44;-4.10;99.90
3492;DHT22;1760;52.480;13.422;2022-12-18T07:40:12;-4.10;99.90
3492;DHT22;1760;52.480;13.422;2022-12-18T07:42:43;-4.20;99.90
3492;DHT22;1760;52.480;13.422;2022-12-18T07:45:10;-4.20;99.90
3492;DHT22;1760;52.480;13.422;2022-12-18T07:47:37;-4.20;99.90
3492;DHT22;1760;52.480;13.422;2022-12-18T07:50:07;-4.20;99.90
3492;DHT22;1760;52.480;13.422;2022-12-18T07:52:34;-4.20;99.90
3492;DHT22;1760;52.480;13.422;2022-12-18T07:55:01;-4.20;99.90
3492;DHT22;1760;52.480;13.422;2022-12-18T07:57:27;-4.10;99.90
3492;DHT22;1760;52.480;13.422;2022-12-18T07:59:56;-4.10;99.90
3492;DHT22;1760;52.480;13.422;2022-12-18T08:02:22;-4.00;99.90
3492;DHT22;1760;52.480;13.422;2022-12-18T08:04:51;-3.90;99.90
3492;DHT22;1760;52.480;13.422;2022-12-18T08:07:21;-4.00;99.90
3492;DHT22;1760;52.480;13.422;2022-12-18T08:09:48;-4.10;99.90
3492;DHT22;1760;52.480;13.422;2022-12-18T08:12:15;-4.00;99.90
3492;DHT22;1760;52.480;13.422;2022-12-18T08:14:41;-4.00;99.90
3492;DHT22;1760;52.480;13.422;2022-12-18T08:17:10;-3.90;99.90
3492;DHT22;1760;52.480;13.422;2022-12-18T08:19:36;-3.90;99.90
3492;DHT22;1760;52.480;13.422;2022-12-18T08:22:03;-3.90;99.90
3492;DHT22;1760;52.480;13.422;2022-12-18T08:24:30;-3.90;99.90
3492;DHT22;1760;52.480;13.422;2022-12-18T08:26:57;-3.90;99.90
3492;DHT22;1760;52.480;13.422;2022-12-18T08:29:24;-3.80;99.90
3492;DHT22;1760;52.480;13.422;2022-12-18T08:31:51;-3.80;99.90
3492;DHT22;1760;52.480;13.422;2022-12-18T08:34:19;-3.90;99.90
3492;DHT22;1760;52.480;13.422;2022-12-18T08:36:46;-3.90;99.90
3492;DHT22;1760;52.480;13.422;2022-12-18T08:39:13;-3.90;99.90
3492;DHT22;1760;52.480;13.422;2022-12-18T08:41:40;-3.90;99.90
3492;DHT22;1760;52.480;13.422;2022-12-18T08:44:07;-3.90;99.90
3492;DHT22;1760;52.480;13.422;2022-12-18T08:46:51;-3.80;99.90
3492;DHT22;1760;52.480;13.422;2022-12-18T08:49:20;-3.80;99.90
3492;DHT22;1760;52.480;13.422;2022-12-18T08:51:46;-3.80;99.90
3492;DHT22;1760;52.480;13.422;2022-12-18T08:54:13;-3.80;99.90
3492;DHT22;1760;52.480;13.422;2022-12-18T08:56:40;-3.80;99.90
3492;DHT22;1760;52.480;13.422;2022-12-18T08:59:08;-3.80;99.90
3492;DHT22;1760;52.480;13.422;2022-12-18T09:01:35;-3.80;99.90
3492;DHT22;1760;52.480;13.422;2022-12-18T09:04:02;-3.80;99.90
3492;DHT22;1760;52.480;13.422;2022-12-18T09:06:31;-3.70;99.90
3492;DHT22;1760;52.480;13.422;2022-12-18T09:08:58;-3.80;99.90
3492;DHT22;1760;52.480;13.422;2022-12-18T09:11:26;-3.80;99.90
3492;DHT22;1760;52.480;13.422;2022-12-18T09:13:54;-3.70;99.90
3492;DHT22;1760;52.480;13.422;2022-12-18T09:16:23;-3.70;99.90
3492;DHT22;1760;52.480;13.422;2022-12-18T09:18:50;-3.60;99.90
3492;DHT22;1760;52.480;13.422;2022-12-18T09:21:19;-3.60;99.90
3492;DHT22;1760;52.480;13.422;2022-12-18T09:23:51;-3.60;99.90
3492;DHT22;1760;52.480;13.422;2022-12-18T09:26:18;-3.60;99.90
3492;DHT22;1760;52.480;13.422;2022-12-18T09:28:45;-3.50;99.90
3492;DHT22;1760;52.480;13.422;2022-12-18T09:31:13;-3.50;99.90
3492;DHT22;1760;52.480;13.422;2022-12-18T09:33:40;-3.40;99.90
3492;DHT22;1760;52.480;13.422;2022-12-18T09:36:09;-3.40;99.90
3492;DHT22;1760;52.480;13.422;2022-12-18T09:38:36;-3.40;99.90
3492;DHT22;1760;52.480;13.422;2022-12-18T09:41:06;-3.30;99.90
3492;DHT22;1760;52.480;13.422;2022-12-18T09:43:45;-3.30;99.90
3492;DHT22;1760;52.480;13.422;2022-12-18T09:46:18;-3.30;99.90
3492;DHT22;1760;52.480;13.422;2022-12-18T09:48:49;-3.20;99.90
3492;DHT22;1760;52.480;13.422;2022-12-18T09:51:20;-3.20;99.90
3492;DHT22;1760;52.480;13.422;2022-12-18T09:53:53;-3.10;99.90
3492;DHT22;1760;52.480;13.422;2022-12-18T09:56:25;-3.10;99.90
3492;DHT22;1760;52.480;13.422;2022-12-18T09:58:58;-3.00;99.90
3492;DHT22;1760;52.480;13.422;2022-12-18T10:01:26;-3.00;99.90
3492;DHT22;1760;52.480;13.422;2022-12-18T10:03:54;-2.90;99.90
3492;DHT22;1760;52.480;13.422;2022-12-18T10:06:26;-2.90;99.90
3492;DHT22;1760;52.480;13.422;2022-12-18T10:09:00;-2.90;99.90
3492;DHT22;1760;52.480;13.422;2022-12-18T10:11:40;-2.80;99.90
3492;DHT22;1760;52.480;13.422;2022-12-18T10:14:16;-2.90;99.90
3492;DHT22;1760;52.480;13.422;2022-12-18T10:16:56;-2.80;99.90
3492;DHT22;1760;52.480;13.422;2022-12-18T10:19:42;-2.80;99.90
3492;DHT22;1760;52.480;13.422;2022-12-18T10:22:22;-2.80;99.90
3492;DHT22;1760;52.480;13.422;2022-12-18T10:24:57;-2.80;99.90
3492;DHT22;1760;52.480;13.422;2022-12-18T10:27:28;-2.80;99.90
3492;DHT22;1760;52.480;13.422;2022-12-18T10:29:59;-2.80;99.90
3492;DHT22;1760;52.480;13.422;2022-12-18T10:32:29;-2.70;99.90
3492;DHT22;1760;52.480;13.422;2022-12-18T10:34:57;-2.70;99.90
3492;DHT22;1760;52.480;13.422;2022-12-18T10:37:25;-2.70;99.90
3492;DHT22;1760;52.480;13.422;2022-12-18T10:40:08;-2.70;99.90
3492;DHT22;1760;52.480;13.422;2022-12-18T10:42:37;-2.70;99.90
3492;DHT22;1760;52.480;13.422;2022-12-18T10:45:10;-2.60;99.90
3492;DHT22;1760;52.480;13.422;2022-12-18T10:47:43;-2.60;99.90
3492;DHT22;1760;52.480;13.422;2022-12-18T10:50:22;-2.50;99.90
3492;DHT22;1760;52.480;13.422;2022-12-18T10:52:55;-2.50;99.90
3492;DHT22;1760;52.480;13.422;2022-12-18T10:55:24;-2.40;99.90
3492;DHT22;1760;52.480;13.422;2022-12-18T10:57:54;-2.40;99.90
3492;DHT22;1760;52.480;13.422;2022-12-18T11:00:24;-2.30;99.90
3492;DHT22;1760;52.480;13.422;2022-12-18T11:02:51;-2.20;99.90
3492;DHT22;1760;52.480;13.422;2022-12-18T11:05:27;-2.30;99.90
3492;DHT22;1760;52.480;13.422;2022-12-18T11:07:55;-2.30;99.90
3492;DHT22;1760;52.480;13.422;2022-12-18T11:10:23;-2.30;99.90
3492;DHT22;1760;52.480;13.422;2022-12-18T11:12:54;-2.50;99.90
3492;DHT22;1760;52.480;13.422;2022-12-18T11:15:23;-2.50;99.90
3492;DHT22;1760;52.480;13.422;2022-12-18T11:17:52;-2.50;99.90
3492;DHT22;1760;52.480;13.422;2022-12-18T11:20:29;-2.50;99.90
3492;DHT22;1760;52.480;13.422;2022-12-18T11:22:59;-2.50;99.90
3492;DHT22;1760;52.480;13.422;2022-12-18T11:25:26;-2.50;99.90
3492;DHT22;1760;52.480;13.422;2022-12-18T11:27:56;-2.50;99.90
3492;DHT22;1760;52.480;13.422;2022-12-18T11:30:26;-2.50;99.90
3492;DHT22;1760;52.480;13.422;2022-12-18T11:32:59;-2.50;99.90
3492;DHT22;1760;52.480;13.422;2022-12-18T11:35:42;-2.50;99.90
3492;DHT22;1760;52.480;13.422;2022-12-18T11:38:19;-2.50;99.90
3492;DHT22;1760;52.480;13.422;2022-12-18T11:40:55;-2.40;99.90
3492;DHT22;1760;52.480;13.422;2022-12-18T11:43:27;-2.40;99.90
3492;DHT22;1760;52.480;13.422;2022-12-18T11:46:02;-2.40;99.90
3492;DHT22;1760;52.480;13.422;2022-12-18T11:48:33;-2.40;99.90
3492;DHT22;1760;52.480;13.422;2022-12-18T11:51:05;-2.40;99.90
3492;DHT22;1760;52.480;13.422;2022-12-18T11:53:36;-2.40;99.90
3492;DHT22;1760;52.480;13.422;2022-12-18T11:56:16;-2.40;99.90
3492;DHT22;1760;52.480;13.422;2022-12-18T11:58:50;-2.40;99.90
3492;DHT22;1760;52.480;13.422;2022-12-18T12:01:36;-2.40;99.90
3492;DHT22;1760;52.480;13.422;2022-12-18T12:04:24;-2.30;99.90
3492;DHT22;1760;52.480;13.422;2022-12-18T12:06:58;-2.20;99.90
3492;DHT22;1760;52.480;13.422;2022-12-18T12:09:34;-2.20;99.90
3492;DHT22;1760;52.480;13.422;2022-12-18T12:12:17;-2.20;99.90
3492;DHT22;1760;52.480;13.422;2022-12-18T12:14:59;-2.20;99.90
3492;DHT22;1760;52.480;13.422;2022-12-18T12:17:39;-2.30;99.90
3492;DHT22;1760;52.480;13.422;2022-12-18T12:20:11;-2.20;99.90
3492;DHT22;1760;52.480;13.422;2022-12-18T12:22:47;-2.20;99.90
3492;DHT22;1760;52.480;13.422;2022-12-18T12:25:26;-2.20;99.90
3492;DHT22;1760;52.480;13.422;2022-12-18T12:28:04;-2.10;99.90
3492;DHT22;1760;52.480;13.422;2022-12-18T12:30:45;-2.10;99.90
3492;DHT22;1760;52.480;13.422;2022-12-18T12:33:23;-2.10;99.90
3492;DHT22;1760;52.480;13.422;2022-12-18T12:35:57;-2.10;99.90
3492;DHT22;1760;52.480;13.422;2022-12-18T12:38:30;-1.40;99.90
3492;DHT22;1760;52.480;13.422;2022-12-18T12:41:00;-2.10;99.90
3492;DHT22;1760;52.480;13.422;2022-12-18T12:43:57;-2.10;99.90
3492;DHT22;1760;52.480;13.422;2022-12-18T12:46:26;-2.00;99.90
3492;DHT22;1760;52.480;13.422;2022-12-18T12:48:54;-2.00;99.90
3492;DHT22;1760;52.480;13.422;2022-12-18T12:51:24;-2.00;99.90
3492;DHT22;1760;52.480;13.422;2022-12-18T12:53:53;-2.00;99.90
3492;DHT22;1760;52.480;13.422;2022-12-18T12:56:21;-2.00;99.90
3492;DHT22;1760;52.480;13.422;2022-12-18T12:58:56;-2.10;99.90
3492;DHT22;1760;52.480;13.422;2022-12-18T13:01:31;-2.10;99.90
3492;DHT22;1760;52.480;13.422;2022-12-18T13:04:14;-2.20;99.90
3492;DHT22;1760;52.480;13.422;2022-12-18T13:06:50;-2.20;99.90
3492;DHT22;1760;52.480;13.422;2022-12-18T13:09:21;-2.20;99.90
3492;DHT22;1760;52.480;13.422;2022-12-18T13:11:50;-2.10;99.90
3492;DHT22;1760;52.480;13.422;2022-12-18T13:14:36;-2.10;99.90
3492;DHT22;1760;52.480;13.422;2022-12-18T13:17:28;-2.00;99.90
3492;DHT22;1760;52.480;13.422;2022-12-18T13:20:11;-2.10;99.90
3492;DHT22;1760;52.480;13.422;2022-12-18T13:22:42;-2.10;99.90
3492;DHT22;1760;52.480;13.422;2022-12-18T13:25:28;-2.10;99.90
3492;DHT22;1760;52.480;13.422;2022-12-18T13:28:00;-2.00;99.90
3492;DHT22;1760;52.480;13.422;2022-12-18T13:30:55;-2.10;99.90
3492;DHT22;1760;52.480;13.422;2022-12-18T13:33:50;-2.00;99.90
3492;DHT22;1760;52.480;13.422;2022-12-18T13:36:36;-2.00;99.90
3492;DHT22;1760;52.480;13.422;2022-12-18T13:45:43;-1.80;99.90
3492;DHT22;1760;52.480;13.422;2022-12-18T13:48:20;-1.80;99.90
3492;DHT22;1760;52.480;13.422;2022-12-18T13:50:57;-1.80;99.90
3492;DHT22;1760;52.480;13.422;2022-12-18T13:53:33;-1.80;99.90
3492;DHT22;1760;52.480;13.422;2022-12-18T13:56:00;-1.90;99.90
3492;DHT22;1760;52.480;13.422;2022-12-18T13:58:34;-1.90;99.90
3492;DHT22;1760;52.480;13.422;2022-12-18T14:01:01;-1.90;99.90
3492;DHT22;1760;52.480;13.422;2022-12-18T14:03:30;-1.80;99.90
3492;DHT22;1760;52.480;13.422;2022-12-18T14:06:04;-1.80;99.90
3492;DHT22;1760;52.480;13.422;2022-12-18T14:08:36;-1.90;99.90
3492;DHT22;1760;52.480;13.422;2022-12-18T14:11:07;-1.90;99.90
3492;DHT22;1760;52.480;13.422;2022-12-18T14:13:41;-2.00;99.90
3492;DHT22;1760;52.480;13.422;2022-12-18T14:16:14;-2.00;99.90
3492;DHT22;1760;52.480;13.422;2022-12-18T14:18:45;-2.00;99.90
3492;DHT22;1760;52.480;13.422;2022-12-18T14:21:23;-2.10;99.90
3492;DHT22;1760;52.480;13.422;2022-12-18T14:24:04;-2.10;99.90
3492;DHT22;1760;52.480;13.422;2022-12-18T14:26:32;-2.20;99.90
3492;DHT22;1760;52.480;13.422;2022-12-18T14:29:10;-2.20;99.90
3492;DHT22;1760;52.480;13.422;2022-12-18T14:31:43;-2.20;99.90
3492;DHT22;1760;52.480;13.422;2022-12-18T14:34:15;-2.20;99.90
3492;DHT22;1760;52.480;13.422;2022-12-18T14:36:51;-2.10;99.90
3492;DHT22;1760;52.480;13.422;2022-12-18T14:39:19;-2.20;99.90
3492;DHT22;1760;52.480;13.422;2022-12-18T14:41:48;-2.10;99.90
3492;DHT22;1760;52.480;13.422;2022-12-18T14:44:18;-2.10;99.90
3492;DHT22;1760;52.480;13.422;2022-12-18T14:46:47;-2.10;99.90
3492;DHT22;1760;52.480;13.422;2022-12-18T14:49:24;-2.10;99.90
3492;DHT22;1760;52.480;13.422;2022-12-18T14:51:54;-2.20;99.90
3492;DHT22;1760;52.480;13.422;2022-12-18T14:54:23;-2.30;99.90
3492;DHT22;1760;52.480;13.422;2022-12-18T14:56:52;-2.30;99.90
3492;DHT22;1760;52.480;13.422;2022-12-18T14:59:24;-2.40;99.90
3492;DHT22;1760;52.480;13.422;2022-12-18T15:01:58;-2.50;99.90
3492;DHT22;1760;52.480;13.422;2022-12-18T15:04:28;-2.60;99.90
3492;DHT22;1760;52.480;13.422;2022-12-18T15:07:07;-2.60;99.90
3492;DHT22;1760;52.480;13.422;2022-12-18T15:09:36;-2.60;99.90
3492;DHT22;1760;52.480;13.422;2022-12-18T15:12:22;-2.70;99.90
3492;DHT22;1760;52.480;13.422;2022-12-18T15:14:49;-2.80;99.90
3492;DHT22;1760;52.480;13.422;2022-12-18T15:17:20;-2.70;99.90
3492;DHT22;1760;52.480;13.422;2022-12-18T15:19:49;-2.70;99.90
3492;DHT22;1760;52.480;13.422;2022-12-18T15:22:25;-2.70;99.90
3492;DHT22;1760;52.480;13.422;2022-12-18T15:24:53;-2.70;99.90
3492;DHT22;1760;52.480;13.422;2022-12-18T15:27:22;-2.70;99.90
3492;DHT22;1760;52.480;13.422;2022-12-18T15:30:00;-2.70;99.90
3492;DHT22;1760;52.480;13.422;2022-12-18T15:32:27;-2.70;99.90
3492;DHT22;1760;52.480;13.422;2022-12-18T15:35:03;-2.70;99.90
3492;DHT22;1760;52.480;13.422;2022-12-18T15:37:31;-2.70;99.90
3492;DHT22;1760;52.480;13.422;2022-12-18T15:40:01;-2.60;99.90
3492;DHT22;1760;52.480;13.422;2022-12-18T15:42:28;-2.70;99.90
3492;DHT22;1760;52.480;13.422;2022-12-18T15:45:16;-2.80;99.90
3492;DHT22;1760;52.480;13.422;2022-12-18T15:47:43;-4.20;99.90
3492;DHT22;1760;52.480;13.422;2022-12-18T15:50:10;-2.90;99.90
3492;DHT22;1760;52.480;13.422;2022-12-18T15:52:40;-2.90;99.90
3492;DHT22;1760;52.480;13.422;2022-12-18T15:55:10;-2.90;99.90
3492;DHT22;1760;52.480;13.422;2022-12-18T15:57:55;-2.80;99.90
3492;DHT22;1760;52.480;13.422;2022-12-18T16:00:22;-2.80;99.90
3492;DHT22;1760;52.480;13.422;2022-12-18T16:02:49;-2.80;99.90
3492;DHT22;1760;52.480;13.422;2022-12-18T16:05:20;-2.80;99.90
3492;DHT22;1760;52.480;13.422;2022-12-18T16:07:49;-2.80;99.90
3492;DHT22;1760;52.480;13.422;2022-12-18T16:10:16;-2.70;99.90
3492;DHT22;1760;52.480;13.422;2022-12-18T16:12:43;-2.70;99.90
3492;DHT22;1760;52.480;13.422;2022-12-18T16:15:14;-2.60;99.90